KGHB

Salsa

Salsa, Louisiana, USA
METAR KGHB 231015Z AUTO VRB04KT 5SM BR CLR 24/23 A3021 RMK A01
Observed Flight Rules
Feb-23 @ 10:15 UTC (16 minutes ago) Marginal Visual Flight Rules
Wind Visibility Clouds Conditions
Variable at 4 knots 5 miles
  • Clear skies
  • Mist
Temperatures Readings
Current 24°C / 75°F
Dewpoint 23°C / 73°F
Humidity 94%
Altimeter 30.21" Hg
Pressure 1023 hPa
Elevation 30
METAR KGHB 231015Z AUTO VRB04KT 5SM BR CLR 24/23 A3021 RMK A01
Observed Flight Rules
Feb-23 @ 10:15 UTC
(16 minutes ago)
MVFR
Wind Visibility
Variable at 4 knots 5 miles
Clouds
  • Clear skies
Conditions
  • Mist
Temperature Dewpoint
24°C / 75°F 23°C / 73°F
Humidity Altimeter Pressure
94% 30.21" Hg 1023 hPa